Time;durP1;ratioP1;P1;durP2;ratioP2;P2;SDS_P1;SDS_P2;PMS_P1;PMS_P2;Temp;Humidity;BMP_temperature;BMP_pressure;BME280_temperature;BME280_humidity;BME280_pressure;Samples;Min_cycle;Max_cycle;Signal;HPM_P1;HPM_P2
2022/07/20 00:01:54;;;;;;;4.40;4.10;;;;;;;;;;5091976;28;20251;-62
2022/07/20 00:04:22;;;;;;;4.32;3.97;;;;;;;;;;5084960;28;20278;-62
2022/07/20 00:06:50;;;;;;;4.30;4.00;;;;;;;;;;5092160;28;20294;-62
2022/07/20 00:12:05;;;;;;;4.47;4.07;;;;;;;;;;5094037;28;20257;-62
2022/07/20 00:14:33;;;;;;;4.85;4.28;;;;;;;;;;5098290;28;20256;-62
2022/07/20 00:17:01;;;;;;;6.53;4.28;;;;;;;;;;5097709;28;20229;-62
2022/07/20 00:19:29;;;;;;;5.90;4.25;;;;;;;;;;5101716;28;20276;-63
2022/07/20 00:21:58;;;;;;;7.65;4.40;;;;;;;;;;5095246;28;20233;-63
2022/07/20 00:24:27;;;;;;;4.60;4.20;;;;;;;;;;5102971;28;20322;-62
2022/07/20 00:26:55;;;;;;;5.35;4.53;;;;;;;;;;5094806;28;20202;-62
2022/07/20 00:29:23;;;;;;;4.95;4.20;;;;;;;;;;5102793;28;20233;-63
2022/07/20 00:31:51;;;;;;;4.72;4.30;;;;;;;;;;5083117;28;20260;-63
2022/07/20 00:34:19;;;;;;;6.40;4.40;;;;;;;;;;5099969;28;20652;-62
2022/07/20 00:36:47;;;;;;;7.88;4.50;;;;;;;;;;5079169;28;20285;-62
2022/07/20 00:39:15;;;;;;;4.88;4.47;;;;;;;;;;5085129;28;20220;-62
2022/07/20 00:41:44;;;;;;;8.13;4.25;;;;;;;;;;5097721;28;20202;-62
2022/07/20 00:44:12;;;;;;;6.78;4.35;;;;;;;;;;5110049;28;20668;-62
2022/07/20 00:46:42;;;;;;;4.72;4.38;;;;;;;;;;5084818;28;20206;-62
2022/07/20 00:49:10;;;;;;;4.80;4.40;;;;;;;;;;5089524;28;20197;-62
2022/07/20 00:51:39;;;;;;;4.97;4.30;;;;;;;;;;5084405;28;20226;-62
2022/07/20 00:54:07;;;;;;;6.03;4.30;;;;;;;;;;5089981;28;20225;-62
2022/07/20 00:56:36;;;;;;;5.53;4.32;;;;;;;;;;5087657;28;20572;-62
2022/07/20 00:59:06;;;;;;;4.65;4.00;;;;;;;;;;5097352;28;20668;-62
2022/07/20 01:01:34;;;;;;;4.57;4.18;;;;;;;;;;5096755;28;20197;-62
2022/07/20 01:04:03;;;;;;;4.35;4.00;;;;;;;;;;5097095;28;20220;-62
2022/07/20 01:06:31;;;;;;;4.85;4.43;;;;;;;;;;5087600;28;20226;-62
2022/07/20 01:08:59;;;;;;;5.60;4.53;;;;;;;;;;5094399;28;20255;-62
2022/07/20 01:11:28;;;;;;;4.53;3.97;;;;;;;;;;5088461;28;20244;-62
2022/07/20 01:14:01;;;;;;;6.13;4.57;;;;;;;;;;5099614;28;20220;-62
2022/07/20 01:16:30;;;;;;;4.60;4.20;;;;;;;;;;5098002;28;20197;-60
2022/07/20 01:18:58;;;;;;;4.88;4.45;;;;;;;;;;5087604;28;20232;-60
2022/07/20 01:21:28;;;;;;;5.72;4.30;;;;;;;;;;5081578;28;20643;-60
2022/07/20 01:23:56;;;;;;;4.53;4.13;;;;;;;;;;5095871;28;20762;-60
2022/07/20 01:26:24;;;;;;;5.85;4.35;;;;;;;;;;5090473;28;20255;-60
2022/07/20 01:28:52;;;;;;;4.65;4.35;;;;;;;;;;5088372;28;20224;-60
2022/07/20 01:31:22;;;;;;;5.75;4.80;;;;;;;;;;5084049;28;20205;-60
2022/07/20 01:33:50;;;;;;;8.40;5.00;;;;;;;;;;5081796;28;20255;-60
2022/07/20 01:36:18;;;;;;;4.28;3.97;;;;;;;;;;5096707;28;20718;-60
2022/07/20 01:38:47;;;;;;;5.72;4.50;;;;;;;;;;5100581;28;20210;-61
2022/07/20 01:41:16;;;;;;;5.70;4.63;;;;;;;;;;5100552;28;20244;-60
2022/07/20 01:43:44;;;;;;;7.25;4.85;;;;;;;;;;5095342;28;20233;-61
2022/07/20 01:46:12;;;;;;;4.88;4.38;;;;;;;;;;5086593;28;20273;-60
2022/07/20 01:48:40;;;;;;;6.70;4.72;;;;;;;;;;5098616;28;20205;-60
2022/07/20 01:51:08;;;;;;;5.43;4.72;;;;;;;;;;5100367;28;20233;-60
2022/07/20 01:53:36;;;;;;;5.07;4.57;;;;;;;;;;5093350;28;20581;-60
2022/07/20 01:56:06;;;;;;;5.78;4.75;;;;;;;;;;5087652;28;20205;-60
2022/07/20 01:58:34;;;;;;;5.63;5.00;;;;;;;;;;5101153;28;20197;-60
2022/07/20 02:01:03;;;;;;;4.68;4.25;;;;;;;;;;5096578;28;20284;-60
2022/07/20 02:03:31;;;;;;;5.43;4.93;;;;;;;;;;5089886;28;20225;-60
2022/07/20 02:05:59;;;;;;;6.63;4.45;;;;;;;;;;5100364;28;20205;-60
2022/07/20 02:08:28;;;;;;;5.13;4.65;;;;;;;;;;5089216;28;20240;-60
2022/07/20 02:10:56;;;;;;;5.07;4.60;;;;;;;;;;5085798;28;20212;-60
2022/07/20 02:13:26;;;;;;;5.10;4.60;;;;;;;;;;5096546;28;20255;-60
2022/07/20 02:18:39;;;;;;;7.55;5.10;;;;;;;;;;5092123;28;20229;-60
2022/07/20 02:21:08;;;;;;;5.78;5.25;;;;;;;;;;5094171;28;20259;-60
2022/07/20 02:23:36;;;;;;;5.35;4.50;;;;;;;;;;5095576;28;20229;-60
2022/07/20 02:26:04;;;;;;;5.50;4.95;;;;;;;;;;5094136;28;20289;-60
2022/07/20 02:28:33;;;;;;;7.28;5.18;;;;;;;;;;5106965;28;20233;-60
2022/07/20 02:31:02;;;;;;;5.75;5.20;;;;;;;;;;5099149;28;20205;-61
2022/07/20 02:33:31;;;;;;;5.63;4.78;;;;;;;;;;5088972;28;20240;-60
2022/07/20 02:35:59;;;;;;;5.60;5.07;;;;;;;;;;5099503;28;20223;-61
2022/07/20 02:38:27;;;;;;;5.35;4.47;;;;;;;;;;5098577;28;20683;-60
2022/07/20 02:40:55;;;;;;;6.45;5.53;;;;;;;;;;5098986;28;20201;-60
2022/07/20 02:43:23;;;;;;;4.85;4.53;;;;;;;;;;5099212;28;20228;-60
2022/07/20 02:45:53;;;;;;;8.80;4.72;;;;;;;;;;5099739;28;20232;-61
2022/07/20 02:48:21;;;;;;;6.85;4.47;;;;;;;;;;5099417;28;20723;-60
2022/07/20 02:50:49;;;;;;;4.85;4.45;;;;;;;;;;5105355;28;20217;-60
2022/07/20 02:53:17;;;;;;;5.35;4.70;;;;;;;;;;5092462;28;20253;-60
2022/07/20 02:55:45;;;;;;;5.15;4.65;;;;;;;;;;5097402;28;20270;-60
2022/07/20 02:58:13;;;;;;;4.85;4.45;;;;;;;;;;5098004;28;20209;-60
2022/07/20 03:00:41;;;;;;;6.00;4.90;;;;;;;;;;5102559;28;20205;-60
2022/07/20 03:03:11;;;;;;;5.20;4.78;;;;;;;;;;5102021;28;20224;-60
2022/07/20 03:05:39;;;;;;;5.05;4.57;;;;;;;;;;5100432;28;21257;-60
2022/07/20 03:08:07;;;;;;;5.22;4.80;;;;;;;;;;5101448;28;20258;-60
2022/07/20 03:10:35;;;;;;;5.30;4.78;;;;;;;;;;5102232;28;20262;-60
2022/07/20 03:13:04;;;;;;;6.45;4.78;;;;;;;;;;5098773;28;20275;-60
2022/07/20 03:15:31;;;;;;;5.22;4.72;;;;;;;;;;5081372;28;20238;-60
2022/07/20 03:17:59;;;;;;;6.15;5.30;;;;;;;;;;5094030;28;20229;-60
2022/07/20 03:20:30;;;;;;;5.13;4.68;;;;;;;;;;5083121;28;20229;-60
2022/07/20 03:22:58;;;;;;;6.70;5.35;;;;;;;;;;5087474;28;20598;-60
2022/07/20 03:25:26;;;;;;;6.45;4.53;;;;;;;;;;5088193;28;20262;-60
2022/07/20 03:27:55;;;;;;;7.55;5.13;;;;;;;;;;5096522;28;20205;-60
2022/07/20 03:30:23;;;;;;;5.13;4.72;;;;;;;;;;5096516;28;20575;-60
2022/07/20 03:32:52;;;;;;;5.53;4.88;;;;;;;;;;5094328;28;20248;-60
2022/07/20 03:35:20;;;;;;;4.80;4.28;;;;;;;;;;5095397;28;20203;-60
2022/07/20 03:37:49;;;;;;;4.57;4.28;;;;;;;;;;5097324;28;20582;-60
2022/07/20 03:40:17;;;;;;;4.68;4.13;;;;;;;;;;5086033;28;20208;-60
2022/07/20 03:42:45;;;;;;;5.80;4.40;;;;;;;;;;5095489;28;20571;-60
2022/07/20 03:45:13;;;;;;;4.65;4.32;;;;;;;;;;5089875;28;20231;-60
2022/07/20 03:47:41;;;;;;;4.85;4.45;;;;;;;;;;5093994;28;20200;-60
2022/07/20 03:50:10;;;;;;;4.75;4.10;;;;;;;;;;5097840;28;20220;-60
2022/07/20 03:52:38;;;;;;;4.25;3.88;;;;;;;;;;5096809;28;20232;-60
2022/07/20 03:55:08;;;;;;;4.28;3.90;;;;;;;;;;5095480;28;20249;-60
2022/07/20 03:57:36;;;;;;;4.28;3.88;;;;;;;;;;5102160;28;20201;-60
2022/07/20 04:00:05;;;;;;;4.63;4.32;;;;;;;;;;5091084;28;20210;-60
2022/07/20 04:02:33;;;;;;;5.50;4.28;;;;;;;;;;5094522;28;20241;-61
2022/07/20 04:05:01;;;;;;;4.60;4.20;;;;;;;;;;5103657;28;20279;-61
2022/07/20 04:07:29;;;;;;;5.68;4.70;;;;;;;;;;5099153;28;20738;-61
2022/07/20 04:09:57;;;;;;;7.75;4.80;;;;;;;;;;5102230;28;20201;-61
2022/07/20 04:12:26;;;;;;;91.43;68.07;;;;;;;;;;5095565;28;20680;-64
2022/07/20 04:14:54;;;;;;;10.73;8.50;;;;;;;;;;5093781;28;20229;-64
2022/07/20 04:17:23;;;;;;;6.13;5.07;;;;;;;;;;5092074;28;20282;-64
2022/07/20 04:19:51;;;;;;;6.97;4.45;;;;;;;;;;5090118;28;20281;-62
2022/07/20 04:22:19;;;;;;;11.48;5.43;;;;;;;;;;5097664;28;20236;-63
2022/07/20 04:24:47;;;;;;;6.00;5.40;;;;;;;;;;5096006;28;20761;-62
2022/07/20 04:27:15;;;;;;;5.90;5.18;;;;;;;;;;5093813;28;20204;-62
2022/07/20 04:29:44;;;;;;;8.73;5.70;;;;;;;;;;5097122;28;20239;-63
2022/07/20 04:32:12;;;;;;;7.93;5.55;;;;;;;;;;5091685;28;20202;-63
2022/07/20 04:34:41;;;;;;;7.60;5.53;;;;;;;;;;5089893;28;20256;-62
2022/07/20 04:37:10;;;;;;;6.18;4.55;;;;;;;;;;5095473;28;20200;-63
2022/07/20 04:39:38;;;;;;;4.85;4.45;;;;;;;;;;5097956;28;20619;-62
2022/07/20 04:42:06;;;;;;;5.18;4.68;;;;;;;;;;5101478;28;20194;-63
2022/07/20 04:44:34;;;;;;;6.57;5.10;;;;;;;;;;5103395;28;20224;-62
2022/07/20 04:47:04;;;;;;;7.60;5.82;;;;;;;;;;5101803;28;20193;-62
2022/07/20 04:49:32;;;;;;;7.95;6.57;;;;;;;;;;5104066;28;20203;-62
2022/07/20 04:52:00;;;;;;;7.93;6.05;;;;;;;;;;5089029;28;20216;-62
2022/07/20 04:54:28;;;;;;;7.80;6.70;;;;;;;;;;5091507;28;20277;-63
2022/07/20 04:56:56;;;;;;;7.30;6.60;;;;;;;;;;5086289;28;20721;-63
2022/07/20 04:59:24;;;;;;;14.45;7.10;;;;;;;;;;5092087;28;20250;-63
2022/07/20 05:01:52;;;;;;;8.43;6.82;;;;;;;;;;5101414;28;20211;-63
2022/07/20 05:04:22;;;;;;;8.82;7.63;;;;;;;;;;5098948;28;20717;-63
2022/07/20 05:06:50;;;;;;;8.68;7.68;;;;;;;;;;5089253;28;20241;-62
2022/07/20 05:09:18;;;;;;;11.25;8.02;;;;;;;;;;5089759;28;20236;-63
2022/07/20 05:11:46;;;;;;;8.15;7.28;;;;;;;;;;5100936;28;20213;-63
2022/07/20 05:14:14;;;;;;;9.90;7.85;;;;;;;;;;5085457;28;20233;-63
2022/07/20 05:16:42;;;;;;;9.35;8.43;;;;;;;;;;5096786;28;20197;-63
2022/07/20 05:19:11;;;;;;;8.70;7.68;;;;;;;;;;5096462;28;20196;-63
2022/07/20 05:21:42;;;;;;;15.35;8.63;;;;;;;;;;5103863;28;20201;-63
2022/07/20 05:24:10;;;;;;;10.60;7.72;;;;;;;;;;5097175;28;20346;-63
2022/07/20 05:26:38;;;;;;;8.82;7.50;;;;;;;;;;5098857;28;20235;-63
2022/07/20 05:29:06;;;;;;;8.88;7.55;;;;;;;;;;5098672;28;20229;-63
2022/07/20 05:31:34;;;;;;;8.82;7.50;;;;;;;;;;5101515;28;20225;-63
2022/07/20 05:34:03;;;;;;;12.32;8.43;;;;;;;;;;5095697;28;20229;-63
2022/07/20 05:36:30;;;;;;;7.93;7.13;;;;;;;;;;5107909;28;20301;-63
2022/07/20 05:39:00;;;;;;;14.13;7.40;;;;;;;;;;5108570;28;20724;-63
2022/07/20 05:41:28;;;;;;;12.68;8.27;;;;;;;;;;5100494;28;20608;-63
2022/07/20 05:43:56;;;;;;;13.40;9.55;;;;;;;;;;5100655;28;20225;-63
2022/07/20 05:46:24;;;;;;;13.32;10.10;;;;;;;;;;5098881;28;20569;-63
2022/07/20 05:48:52;;;;;;;14.88;10.30;;;;;;;;;;5100743;28;20204;-63
2022/07/20 05:51:21;;;;;;;13.43;9.75;;;;;;;;;;5100610;28;20194;-63
2022/07/20 05:53:59;;;;;;;12.57;10.20;;;;;;;;;;5088691;28;20231;-62
2022/07/20 05:56:28;;;;;;;12.98;11.10;;;;;;;;;;5100371;28;20209;-63
2022/07/20 05:58:56;;;;;;;15.60;11.00;;;;;;;;;;5100255;28;20193;-63
2022/07/20 06:01:24;;;;;;;14.32;10.60;;;;;;;;;;5106528;28;20201;-63
2022/07/20 06:03:52;;;;;;;12.98;11.13;;;;;;;;;;5100729;28;20303;-63
2022/07/20 06:06:20;;;;;;;20.35;10.48;;;;;;;;;;5098853;28;20201;-63
2022/07/20 06:08:48;;;;;;;18.17;10.05;;;;;;;;;;5102579;28;20206;-63
2022/07/20 06:11:37;;;;;;;19.13;12.77;;;;;;;;;;5096491;28;20208;-63
2022/07/20 06:14:05;;;;;;;19.38;13.70;;;;;;;;;;5097597;28;20220;-63
2022/07/20 06:16:33;;;;;;;15.43;12.73;;;;;;;;;;5099099;28;20205;-63
2022/07/20 06:19:01;;;;;;;18.88;12.93;;;;;;;;;;5100031;28;20235;-63
2022/07/20 06:21:29;;;;;;;17.95;12.15;;;;;;;;;;5099220;28;20225;-62
2022/07/20 06:23:57;;;;;;;17.35;12.40;;;;;;;;;;5099261;28;20228;-62
2022/07/20 06:26:25;;;;;;;17.55;12.82;;;;;;;;;;5093512;28;20229;-62
2022/07/20 06:28:55;;;;;;;17.20;12.48;;;;;;;;;;5106446;28;20645;-62
2022/07/20 06:31:23;;;;;;;20.42;13.65;;;;;;;;;;5088640;28;20730;-62
2022/07/20 06:34:11;;;;;;;20.20;13.10;;;;;;;;;;5102673;28;20315;-62
2022/07/20 06:36:39;;;;;;;15.52;12.68;;;;;;;;;;5097078;28;20205;-62
2022/07/20 06:39:07;;;;;;;27.48;14.15;;;;;;;;;;5102085;28;20205;-62
2022/07/20 06:41:35;;;;;;;18.35;13.18;;;;;;;;;;5098177;28;20211;-62
2022/07/20 06:44:04;;;;;;;18.58;12.40;;;;;;;;;;5094854;28;20232;-62
2022/07/20 06:46:32;;;;;;;16.02;12.65;;;;;;;;;;5092585;28;20227;-62
2022/07/20 06:49:00;;;;;;;19.52;13.57;;;;;;;;;;5087202;28;20206;-62
2022/07/20 06:51:28;;;;;;;16.58;13.25;;;;;;;;;;5089977;28;20205;-62
2022/07/20 06:53:56;;;;;;;21.45;13.75;;;;;;;;;;5099265;28;20237;-62
2022/07/20 06:56:25;;;;;;;16.10;13.38;;;;;;;;;;5099032;28;20314;-62
2022/07/20 06:58:52;;;;;;;17.60;13.05;;;;;;;;;;5099515;28;20231;-62
2022/07/20 07:01:22;;;;;;;15.45;12.95;;;;;;;;;;5086282;28;20202;-63
2022/07/20 07:03:50;;;;;;;15.85;12.77;;;;;;;;;;5097261;28;20256;-62
2022/07/20 07:06:18;;;;;;;18.83;13.85;;;;;;;;;;5096086;28;20202;-62
2022/07/20 07:08:46;;;;;;;15.95;12.82;;;;;;;;;;5098753;28;20202;-62
2022/07/20 07:11:14;;;;;;;18.55;13.07;;;;;;;;;;5104905;28;20656;-62
2022/07/20 07:13:42;;;;;;;19.30;13.30;;;;;;;;;;5096056;28;20217;-62
2022/07/20 07:16:10;;;;;;;15.68;13.40;;;;;;;;;;5095925;28;20229;-62
2022/07/20 07:18:40;;;;;;;16.85;13.23;;;;;;;;;;5098979;28;20238;-62
2022/07/20 07:21:08;;;;;;;16.95;12.80;;;;;;;;;;5098816;28;20262;-62
2022/07/20 07:23:36;;;;;;;15.43;11.77;;;;;;;;;;5096452;28;20271;-62
2022/07/20 07:26:04;;;;;;;18.08;12.95;;;;;;;;;;5091399;28;20668;-62
2022/07/20 07:28:32;;;;;;;16.92;13.55;;;;;;;;;;5103639;28;20258;-62
2022/07/20 07:31:00;;;;;;;13.73;12.13;;;;;;;;;;5085951;28;20200;-62
2022/07/20 07:33:28;;;;;;;16.40;12.20;;;;;;;;;;5104658;28;20235;-62
2022/07/20 07:35:58;;;;;;;16.90;12.68;;;;;;;;;;5091567;28;20229;-62
2022/07/20 07:38:26;;;;;;;15.77;12.13;;;;;;;;;;5095356;28;20761;-61
2022/07/20 07:40:54;;;;;;;18.90;12.55;;;;;;;;;;5094919;28;20208;-62
2022/07/20 07:43:22;;;;;;;20.25;13.02;;;;;;;;;;5094258;28;20310;-63
2022/07/20 07:45:50;;;;;;;18.85;12.60;;;;;;;;;;5092600;28;20194;-63
2022/07/20 07:48:18;;;;;;;14.63;12.73;;;;;;;;;;5102706;28;20225;-62
2022/07/20 07:50:47;;;;;;;13.50;11.15;;;;;;;;;;5100824;28;20205;-63
2022/07/20 07:53:16;;;;;;;14.70;11.85;;;;;;;;;;5097326;28;20252;-63
2022/07/20 07:55:45;;;;;;;19.15;13.52;;;;;;;;;;5099073;28;20269;-63
2022/07/20 07:58:13;;;;;;;17.33;11.82;;;;;;;;;;5097268;28;20657;-63
2022/07/20 08:00:41;;;;;;;17.85;10.60;;;;;;;;;;5096151;28;20213;-63
2022/07/20 08:03:10;;;;;;;16.02;11.88;;;;;;;;;;5101704;28;20285;-63
2022/07/20 08:05:38;;;;;;;17.08;13.20;;;;;;;;;;5098964;28;20676;-63
2022/07/20 08:08:07;;;;;;;15.70;10.85;;;;;;;;;;5096054;28;20973;-63
2022/07/20 08:10:39;;;;;;;16.77;10.77;;;;;;;;;;5096495;28;20197;-63
2022/07/20 08:13:07;;;;;;;14.10;11.13;;;;;;;;;;5092404;28;20221;-63
2022/07/20 08:15:35;;;;;;;14.65;10.80;;;;;;;;;;5102093;28;20263;-63
2022/07/20 08:18:03;;;;;;;16.80;11.10;;;;;;;;;;5095579;28;20656;-63
2022/07/20 08:20:32;;;;;;;10.95;9.80;;;;;;;;;;5097181;28;20222;-63
2022/07/20 08:23:00;;;;;;;12.75;11.02;;;;;;;;;;5096269;28;20284;-63
2022/07/20 08:25:28;;;;;;;13.85;11.95;;;;;;;;;;5096123;28;20224;-63
2022/07/20 08:28:09;;;;;;;12.38;9.85;;;;;;;;;;5097072;28;20561;-63
2022/07/20 08:30:37;;;;;;;15.18;10.05;;;;;;;;;;5095164;28;20224;-63
2022/07/20 08:33:21;;;;;;;10.35;9.35;;;;;;;;;;5100111;28;20220;-63
2022/07/20 08:35:49;;;;;;;9.68;8.68;;;;;;;;;;5087320;28;20225;-63
2022/07/20 08:38:17;;;;;;;12.48;10.15;;;;;;;;;;5090458;28;20204;-63
2022/07/20 08:40:45;;;;;;;9.60;8.45;;;;;;;;;;5087695;28;20288;-63
2022/07/20 08:43:16;;;;;;;11.38;9.00;;;;;;;;;;5097434;28;20224;-63
2022/07/20 08:45:44;;;;;;;13.40;9.55;;;;;;;;;;5085197;28;20593;-63
2022/07/20 08:48:12;;;;;;;10.10;9.07;;;;;;;;;;5093817;28;20571;-63
2022/07/20 08:50:40;;;;;;;11.18;9.25;;;;;;;;;;5094134;28;20263;-63
2022/07/20 08:53:09;;;;;;;12.52;9.80;;;;;;;;;;5088007;28;20225;-63
2022/07/20 08:55:37;;;;;;;10.45;9.35;;;;;;;;;;5091038;28;20307;-63
2022/07/20 08:58:05;;;;;;;11.93;9.55;;;;;;;;;;5096077;28;20201;-63
2022/07/20 09:00:34;;;;;;;10.65;8.63;;;;;;;;;;5099044;28;20205;-63
2022/07/20 09:03:03;;;;;;;13.63;9.20;;;;;;;;;;5095378;28;20197;-63
2022/07/20 09:05:32;;;;;;;13.43;10.00;;;;;;;;;;5098867;28;20567;-63
2022/07/20 09:08:00;;;;;;;13.77;9.77;;;;;;;;;;5097154;28;20198;-63
2022/07/20 09:10:29;;;;;;;13.65;9.23;;;;;;;;;;5091768;28;20202;-63
2022/07/20 09:12:59;;;;;;;10.75;9.15;;;;;;;;;;5096215;28;20193;-63
2022/07/20 09:15:32;;;;;;;11.45;9.52;;;;;;;;;;5090088;28;20569;-63
2022/07/20 09:18:05;;;;;;;13.93;8.88;;;;;;;;;;5095242;28;20217;-63
2022/07/20 09:20:34;;;;;;;9.07;8.23;;;;;;;;;;5093517;28;20260;-63
2022/07/20 09:23:03;;;;;;;10.73;8.23;;;;;;;;;;5094177;28;20228;-63
2022/07/20 09:25:31;;;;;;;9.52;8.05;;;;;;;;;;5096645;28;20668;-63
2022/07/20 09:27:59;;;;;;;9.52;8.07;;;;;;;;;;5096375;28;20208;-63
2022/07/20 09:30:28;;;;;;;8.38;7.55;;;;;;;;;;5100896;28;20221;-63
2022/07/20 09:32:58;;;;;;;12.57;8.68;;;;;;;;;;5101163;28;20201;-63
2022/07/20 09:35:29;;;;;;;8.88;7.97;;;;;;;;;;5098739;28;20209;-63
2022/07/20 09:37:58;;;;;;;9.00;8.10;;;;;;;;;;5099527;28;20197;-63
2022/07/20 09:40:26;;;;;;;11.18;8.15;;;;;;;;;;5093320;28;20221;-62
2022/07/20 09:42:54;;;;;;;11.35;8.15;;;;;;;;;;5099990;28;20231;-62
2022/07/20 09:45:23;;;;;;;10.20;8.38;;;;;;;;;;5097961;28;20620;-62
2022/07/20 09:48:09;;;;;;;8.68;7.68;;;;;;;;;;5098750;28;20627;-62
2022/07/20 09:50:40;;;;;;;9.95;7.53;;;;;;;;;;5094463;28;20233;-62
2022/07/20 09:53:09;;;;;;;8.40;7.68;;;;;;;;;;5099873;28;20592;-62
2022/07/20 09:55:38;;;;;;;12.88;8.95;;;;;;;;;;5095337;28;20804;-62
2022/07/20 09:58:07;;;;;;;9.07;8.27;;;;;;;;;;5090293;28;20250;-63
2022/07/20 10:00:36;;;;;;;9.90;8.20;;;;;;;;;;5098671;28;20197;-63
2022/07/20 10:03:14;;;;;;;8.52;7.75;;;;;;;;;;5100976;28;20225;-63
2022/07/20 10:05:44;;;;;;;9.63;8.73;;;;;;;;;;5100517;28;20197;-62
2022/07/20 10:08:12;;;;;;;9.50;8.55;;;;;;;;;;5108426;28;20292;-62
2022/07/20 10:10:40;;;;;;;10.98;7.97;;;;;;;;;;5115804;28;20209;-62
2022/07/20 10:13:08;;;;;;;10.68;8.25;;;;;;;;;;5100596;28;20217;-63
2022/07/20 10:15:41;;;;;;;9.70;8.75;;;;;;;;;;5099189;28;20229;-63
2022/07/20 10:18:10;;;;;;;11.77;8.07;;;;;;;;;;5096418;28;20300;-63
2022/07/20 10:20:49;;;;;;;12.80;7.72;;;;;;;;;;5099658;28;20201;-62
2022/07/20 10:23:38;;;;;;;9.63;8.63;;;;;;;;;;5099394;28;20780;-62
2022/07/20 10:26:23;;;;;;;9.35;7.82;;;;;;;;;;5109005;28;20233;-62
2022/07/20 10:28:58;;;;;;;8.85;7.28;;;;;;;;;;5099773;28;20244;-62
2022/07/20 10:31:26;;;;;;;8.82;7.68;;;;;;;;;;5087085;28;20202;-62
2022/07/20 10:33:54;;;;;;;9.52;7.60;;;;;;;;;;5098939;28;20229;-62
2022/07/20 10:39:24;;;;;;;8.73;7.65;;;;;;;;;;5095549;28;20227;-66
2022/07/20 10:42:07;;;;;;;9.50;8.57;;;;;;;;;;5097439;28;20730;-66
2022/07/20 10:44:39;;;;;;;12.35;7.95;;;;;;;;;;5100798;28;20221;-66
2022/07/20 10:47:27;;;;;;;9.65;7.32;;;;;;;;;;5101526;28;20193;-66
2022/07/20 10:50:03;;;;;;;9.07;6.95;;;;;;;;;;5101627;28;20239;-66
2022/07/20 10:52:34;;;;;;;8.57;6.93;;;;;;;;;;5095018;28;20197;-66
2022/07/20 10:55:02;;;;;;;8.10;7.28;;;;;;;;;;5096274;28;20221;-66
2022/07/20 10:57:31;;;;;;;8.88;6.68;;;;;;;;;;5099648;28;20221;-65
2022/07/20 11:00:17;;;;;;;10.73;6.93;;;;;;;;;;5101379;28;20235;-65
2022/07/20 11:02:45;;;;;;;7.15;6.53;;;;;;;;;;5091469;28;20201;-65
2022/07/20 11:05:21;;;;;;;7.50;6.03;;;;;;;;;;5094319;28;20921;-66
2022/07/20 11:07:51;;;;;;;7.10;6.20;;;;;;;;;;5098813;28;20279;-66
2022/07/20 11:10:21;;;;;;;7.07;6.28;;;;;;;;;;5098019;28;20730;-65
2022/07/20 11:12:57;;;;;;;7.50;6.45;;;;;;;;;;5101058;28;20201;-66
2022/07/20 11:15:37;;;;;;;9.10;6.20;;;;;;;;;;5089595;28;20234;-64
2022/07/20 11:18:06;;;;;;;7.00;6.28;;;;;;;;;;5090474;28;20578;-64
2022/07/20 11:20:34;;;;;;;6.10;5.50;;;;;;;;;;5096909;28;20223;-64
2022/07/20 11:23:03;;;;;;;6.10;5.38;;;;;;;;;;5088881;28;20607;-64
2022/07/20 11:25:48;;;;;;;9.30;7.25;;;;;;;;;;5088197;28;20613;-65
2022/07/20 11:28:17;;;;;;;9.65;7.40;;;;;;;;;;5081260;28;20619;-65
2022/07/20 11:30:46;;;;;;;9.57;7.85;;;;;;;;;;5099851;28;20205;-65
2022/07/20 11:33:14;;;;;;;13.30;7.20;;;;;;;;;;5098157;28;20662;-64
2022/07/20 11:35:43;;;;;;;8.73;7.07;;;;;;;;;;5093701;28;20197;-64
2022/07/20 11:38:13;;;;;;;7.82;6.88;;;;;;;;;;5098392;28;20265;-64
2022/07/20 11:40:41;;;;;;;9.63;7.28;;;;;;;;;;5098373;28;20268;-64
2022/07/20 11:43:10;;;;;;;11.10;8.00;;;;;;;;;;5097308;28;20270;-64
2022/07/20 11:45:38;;;;;;;10.32;8.52;;;;;;;;;;5094826;28;20212;-64
2022/07/20 11:48:17;;;;;;;9.57;8.57;;;;;;;;;;5089405;28;20210;-64
2022/07/20 11:51:05;;;;;;;12.75;7.97;;;;;;;;;;5081995;28;20212;-64
2022/07/20 11:53:36;;;;;;;9.02;7.30;;;;;;;;;;5095126;28;20273;-64
2022/07/20 11:56:06;;;;;;;8.70;7.93;;;;;;;;;;5100782;28;20254;-64
2022/07/20 11:58:34;;;;;;;8.23;7.32;;;;;;;;;;5102751;28;20232;-64
2022/07/20 12:01:04;;;;;;;10.50;7.47;;;;;;;;;;5089344;28;20201;-75
2022/07/20 12:03:36;;;;;;;7.88;7.07;;;;;;;;;;5092820;28;20592;-75
2022/07/20 12:06:06;;;;;;;8.43;7.57;;;;;;;;;;5085239;28;20212;-74
2022/07/20 12:08:36;;;;;;;8.23;7.43;;;;;;;;;;5092224;28;20585;-74
2022/07/20 12:11:04;;;;;;;8.82;7.00;;;;;;;;;;5080103;28;20198;-75
2022/07/20 12:13:33;;;;;;;9.00;8.13;;;;;;;;;;5092333;28;20221;-74
2022/07/20 12:16:05;;;;;;;14.90;8.85;;;;;;;;;;5083572;28;20244;-75
2022/07/20 12:18:37;;;;;;;10.02;8.63;;;;;;;;;;5080531;28;20236;-73
2022/07/20 12:21:07;;;;;;;8.68;7.80;;;;;;;;;;5087769;28;20201;-75
2022/07/20 12:23:38;;;;;;;9.27;7.80;;;;;;;;;;5096001;28;20240;-74
2022/07/20 12:26:25;;;;;;;11.43;10.27;;;;;;;;;;5093739;28;20201;-75
2022/07/20 12:28:55;;;;;;;10.98;9.13;;;;;;;;;;5095032;28;20197;-74
2022/07/20 12:31:24;;;;;;;10.77;9.23;;;;;;;;;;5093949;28;20197;-74
2022/07/20 12:34:02;;;;;;;9.88;8.95;;;;;;;;;;5093331;28;20232;-75
2022/07/20 12:36:35;;;;;;;9.05;8.18;;;;;;;;;;5091831;28;20227;-74
2022/07/20 12:39:07;;;;;;;10.93;9.82;;;;;;;;;;5094671;28;20557;-74
2022/07/20 12:41:35;;;;;;;10.95;8.68;;;;;;;;;;5094999;28;20227;-74
2022/07/20 12:44:24;;;;;;;12.15;8.50;;;;;;;;;;5095506;28;20256;-74
2022/07/20 12:46:52;;;;;;;9.50;8.55;;;;;;;;;;5084858;28;20209;-74
2022/07/20 12:49:21;;;;;;;9.75;8.85;;;;;;;;;;5090231;28;20571;-74
2022/07/20 12:51:49;;;;;;;10.65;8.68;;;;;;;;;;5094685;28;20209;-74
2022/07/20 12:54:19;;;;;;;11.57;9.02;;;;;;;;;;5083161;28;20225;-74
2022/07/20 12:57:07;;;;;;;12.88;9.55;;;;;;;;;;5089442;28;20240;-74
2022/07/20 12:59:35;;;;;;;9.68;8.52;;;;;;;;;;5097028;28;20279;-74
2022/07/20 13:02:03;;;;;;;13.80;10.05;;;;;;;;;;5095207;28;20643;-75
2022/07/20 13:04:31;;;;;;;10.48;9.38;;;;;;;;;;5097510;28;20226;-74
2022/07/20 13:07:02;;;;;;;10.68;9.43;;;;;;;;;;5099702;28;20204;-75
2022/07/20 13:09:35;;;;;;;10.25;9.25;;;;;;;;;;5099911;28;20193;-74
2022/07/20 13:12:03;;;;;;;12.70;10.25;;;;;;;;;;5098672;28;20256;-74
2022/07/20 13:14:31;;;;;;;10.32;9.05;;;;;;;;;;5096032;28;20221;-74
2022/07/20 13:16:59;;;;;;;11.88;9.63;;;;;;;;;;5092309;28;20244;-75
2022/07/20 13:19:27;;;;;;;13.20;9.07;;;;;;;;;;5100210;28;20223;-74
2022/07/20 13:21:55;;;;;;;10.52;9.43;;;;;;;;;;5097960;28;20729;-75
2022/07/20 13:24:23;;;;;;;13.38;10.30;;;;;;;;;;5095094;28;20233;-74
2022/07/20 13:26:54;;;;;;;12.90;10.30;;;;;;;;;;5087007;28;20232;-75
2022/07/20 13:29:24;;;;;;;11.85;9.90;;;;;;;;;;5092114;28;20189;-74
2022/07/20 13:31:52;;;;;;;15.02;9.77;;;;;;;;;;5100306;28;20202;-75
2022/07/20 13:34:20;;;;;;;11.20;8.93;;;;;;;;;;5090833;28;20217;-74
2022/07/20 13:36:48;;;;;;;10.95;8.48;;;;;;;;;;5093984;28;20646;-74
2022/07/20 13:39:16;;;;;;;17.40;9.05;;;;;;;;;;5097804;28;20813;-74
2022/07/20 13:41:44;;;;;;;10.65;8.40;;;;;;;;;;5096805;28;20289;-75
2022/07/20 13:44:14;;;;;;;10.05;8.90;;;;;;;;;;5099997;28;20272;-74
2022/07/20 13:46:42;;;;;;;9.48;8.48;;;;;;;;;;5100221;28;20216;-75
2022/07/20 13:49:10;;;;;;;12.35;8.48;;;;;;;;;;5099820;28;20236;-75
2022/07/20 13:51:38;;;;;;;10.48;7.88;;;;;;;;;;5096080;28;20240;-75
2022/07/20 13:54:27;;;;;;;11.15;7.80;;;;;;;;;;5090837;28;20592;-75
2022/07/20 13:56:55;;;;;;;8.60;7.70;;;;;;;;;;5086383;28;20202;-76
2022/07/20 13:59:25;;;;;;;9.02;7.05;;;;;;;;;;5092379;28;20253;-74
2022/07/20 14:01:53;;;;;;;9.13;7.28;;;;;;;;;;5096329;28;20205;-75
2022/07/20 14:04:21;;;;;;;14.25;7.25;;;;;;;;;;5097931;28;20284;-74
2022/07/20 14:06:50;;;;;;;9.07;7.18;;;;;;;;;;5092231;28;20665;-75
2022/07/20 14:09:18;;;;;;;10.40;7.40;;;;;;;;;;5096864;28;20208;-75
2022/07/20 14:11:46;;;;;;;11.20;6.95;;;;;;;;;;5089712;28;20197;-74
2022/07/20 14:14:15;;;;;;;9.00;7.70;;;;;;;;;;5099620;28;20260;-74
2022/07/20 14:16:44;;;;;;;10.35;7.22;;;;;;;;;;5088717;28;20206;-73
2022/07/20 14:19:12;;;;;;;10.35;7.47;;;;;;;;;;5094255;28;20222;-74
2022/07/20 14:21:41;;;;;;;8.40;6.97;;;;;;;;;;5087399;28;20270;-74
2022/07/20 14:24:09;;;;;;;8.68;7.28;;;;;;;;;;5098607;28;20244;-74
2022/07/20 14:26:38;;;;;;;7.10;6.47;;;;;;;;;;5101046;28;20228;-73
2022/07/20 14:29:06;;;;;;;12.00;7.88;;;;;;;;;;5098516;28;20233;-73
2022/07/20 14:31:35;;;;;;;7.43;6.18;;;;;;;;;;5099308;28;20201;-73
2022/07/20 14:34:04;;;;;;;8.20;6.55;;;;;;;;;;5098124;28;20217;-74
2022/07/20 14:36:32;;;;;;;13.73;6.80;;;;;;;;;;5093822;28;20251;-74
2022/07/20 14:39:00;;;;;;;8.15;6.88;;;;;;;;;;5101671;28;20229;-73
2022/07/20 14:41:28;;;;;;;8.15;6.72;;;;;;;;;;5097935;28;20683;-73
2022/07/20 14:43:56;;;;;;;7.97;6.32;;;;;;;;;;5106698;28;20274;-73
2022/07/20 14:46:24;;;;;;;8.38;6.25;;;;;;;;;;5107503;28;20259;-73
2022/07/20 14:48:52;;;;;;;8.75;6.50;;;;;;;;;;5104688;28;20220;-73
2022/07/20 14:51:23;;;;;;;9.73;6.70;;;;;;;;;;5105580;28;20720;-73
2022/07/20 14:53:51;;;;;;;10.95;7.65;;;;;;;;;;5102889;28;20620;-73
2022/07/20 14:56:19;;;;;;;9.05;6.78;;;;;;;;;;5093661;28;20197;-73
2022/07/20 14:58:47;;;;;;;7.30;6.55;;;;;;;;;;5078608;28;20314;-75